Flight Track Log - Related Links

Times and Time Zones

All times are in EDT time to prevent confusion due to time zone crossing. See the JBU1503 flight status page for this flight to view local times or setup timezone preferences in your user account.

Time Position Orientation Groundspeed Altitude Reporting Facility
EDT Latitude Longitude Course Direction KTS MPH feet Rate Location/Type
Wed 12:08:33 AM 40.6319 -73.8503 148° Southeast 187 215 2,100  Level New York Center
Wed 12:09:29 AM 40.5833 -73.8833 207° Southwest 284 327 4,600 2,867 Climbing New York TRACON
Wed 12:10:00 AM 39.5413 -71.9266 129° Southeast  Level FlightAware Approximate
Wed 12:11:00 AM 39.4775 -71.8239 129° Southeast  Level FlightAware Approximate
Wed 12:11:33 AM 40.4925 -73.6803 120° Southeast 306 352 10,700  Level New York Center
Wed 12:12:00 AM 39.4135 -71.7215 129° Southeast  Level FlightAware Approximate
Wed 12:12:33 AM 40.4433 -73.5553 117° Southeast 360 414 12,200  Level New York Center
Wed 12:13:00 AM 39.3321 -71.6444 148° Southeast  Level FlightAware Approximate
Wed 12:13:33 AM 40.3647 -73.4486 134° Southeast 391 450 13,900  Level New York Center
Wed 12:14:33 AM 40.2797 -73.3392 135° Southeast 425 489 16,600 2,250 Climbing New York Center
Wed 12:15:33 AM 40.1944 -73.2328 136° Southeast 430 495 18,400 1,800 Climbing New York Center
Wed 12:16:33 AM 40.1131 -73.1322 137° Southeast 440 506 20,200 1,800 Climbing New York Center
Wed 12:17:33 AM 40.0236 -73.0233 137° Southeast 440 506 22,000 1,600 Climbing New York Center
Wed 12:18:33 AM 39.9300 -72.9067 136° Southeast 445 512 23,400 1,250 Climbing New York Center
Wed 12:19:33 AM 39.8361 -72.7875 136° Southeast 459 528 24,500 1,150 Climbing New York Center
Wed 12:20:33 AM 39.7403 -72.6686 136° Southeast 472 543 25,700 1,450 Climbing New York Center
Wed 12:21:33 AM 39.6419 -72.5447 136° Southeast 477 549 27,400 2,050 Climbing New York Center
Wed 12:22:33 AM 39.5500 -72.4319 137° Southeast 477 549 29,800 1,750 Climbing New York Center
Wed 12:23:33 AM 39.4575 -72.3250 138° Southeast 456 525 30,900 1,250 Climbing New York Center
Wed 12:24:33 AM 39.3694 -72.2128 135° Southeast 451 519 32,300 1,350 Climbing New York Center
Wed 12:25:33 AM 39.2769 -72.1036 138° Southeast 451 519 33,600 1,500 Climbing New York Center
Wed 12:26:33 AM 39.1886 -71.9919 136° Southeast 445 512 35,300 1,650 Climbing New York Center
Wed 12:27:33 AM 39.1042 -71.8861 136° Southeast 434 499 36,900 850 Climbing New York Center
Wed 12:28:33 AM 39.0156 -71.7858 139° Southeast 429 494 37,000 50 Climbing New York Center
Wed 12:29:33 AM 38.9289 -71.6806 137° Southeast 429 494 37,000  Level New York Center
Wed 12:30:33 AM 38.8419 -71.5756 137° Southeast 429 494 37,000  Level New York Center
Wed 12:31:33 AM 38.7550 -71.4706 137° Southeast 434 499 37,000 -50 Level New York Center
Wed 12:32:33 AM 38.6681 -71.3658 137° Southeast 434 499 36,900 -50 Descending New York Center
Wed 12:33:33 AM 38.5789 -71.2669 139° Southeast 434 499 36,900 50 Level New York Center
Wed 12:34:33 AM 38.4878 -71.1600 137° Southeast 434 499 37,000 50 Climbing New York Center
Wed 12:35:33 AM 38.3983 -71.0561 138° Southeast 439 505 37,000  Level New York Center
Wed 12:36:33 AM 38.3089 -70.9447 136° Southeast 439 505 37,000  Level New York Center
Wed 12:37:33 AM 38.2172 -70.8439 139° Southeast 444 511 37,000  Level New York Center
Wed 12:38:33 AM 38.1214 -70.7486 142° Southeast 439 505 37,000  Level New York Center
Wed 12:39:33 AM 38.0192 -70.6592 145° Southeast 434 499 37,000  Level New York Center
Wed 12:40:33 AM 37.9108 -70.6014 157° South 434 499 37,000  Level New York Center
Wed 12:40:58 AM 38.0000 -70.5833 153° Southeast 433 498 37,000  Level New York Oceanic (ODAPS)
Wed 12:41:33 AM 37.8000 -70.5356 153° Southeast 434 499 37,000  Level New York Center
Wed 12:42:33 AM 37.6956 -70.4572 149° Southeast 429 494 37,000 -50 Level New York Center
Wed 12:43:33 AM 37.5850 -70.3947 156° South 429 494 36,900  Descending New York Center
Wed 12:45:00 AM 37.4779 -70.2423 154° Southeast  Level FlightAware Approximate
Wed 12:52:00 AM 36.7968 -69.8328 154° Southeast  Level FlightAware Approximate
Wed 12:53:00 AM 36.6994 -69.7749 155° Southeast  Level FlightAware Approximate
Wed 12:54:00 AM 36.6020 -69.7171 155° Southeast  Level FlightAware Approximate
Wed 12:55:00 AM 36.5046 -69.6595 154° Southeast  Level FlightAware Approximate
Wed 12:56:00 AM 36.4072 -69.6017 154° Southeast  Level FlightAware Approximate
Wed 12:57:00 AM 36.3098 -69.5441 155° Southeast  Level FlightAware Approximate
Wed 12:58:00 AM 36.2123 -69.4867 155° Southeast  Level FlightAware Approximate
Wed 12:58:03 AM 36.1667 -69.4500 143° Southeast 456 525 37,000  Level New York Oceanic (ODAPS)
Wed 12:59:00 AM 36.1194 -69.4203 142° Southeast  Level FlightAware Approximate
Wed 01:00:00 AM 36.0345 -69.3379 142° Southeast  Level FlightAware Approximate
Wed 01:01:00 AM 35.9496 -69.2556 142° Southeast  Level FlightAware Approximate
Wed 01:02:00 AM 35.8646 -69.1736 142° Southeast  Level FlightAware Approximate
Wed 01:03:00 AM 35.7796 -69.0917 142° Southeast  Level FlightAware Approximate
Wed 01:04:00 AM 35.3568 -68.6921 143° Southeast 456 525 37,000  Level FlightAware Transoceanic
Wed 01:05:00 AM 35.2552 -68.5984 143° Southeast 456 525 37,000  Level FlightAware Transoceanic
Wed 01:06:00 AM 35.1536 -68.5050 143° Southeast 456 525 37,000  Level FlightAware Transoceanic
Wed 01:07:00 AM 35.0519 -68.4118 143° Southeast 456 525 37,000  Level FlightAware Transoceanic
Wed 01:08:00 AM 34.9501 -68.3188 143° Southeast 456 525 37,000  Level FlightAware Transoceanic
Wed 01:09:00 AM 34.8482 -68.2261 143° Southeast 456 525 37,000  Level FlightAware Transoceanic
Wed 01:10:00 AM 34.7463 -68.1336 143° Southeast 456 525 37,000  Level FlightAware Transoceanic
Wed 01:11:00 AM 34.6443 -68.0413 143° Southeast 456 525 37,000  Level FlightAware Transoceanic
Wed 01:11:21 AM 34.7128 -68.0069 144° Southeast 442 509 37,000  Level New York Center
Wed 01:12:00 AM 34.5423 -67.9493 143° Southeast 456 525 37,000  Level FlightAware Transoceanic
Wed 01:12:21 AM 34.6128 -67.9147 143° Southeast 454 522 37,000  Level New York Center
Wed 01:13:00 AM 34.4401 -67.8575 143° Southeast 456 525 37,000  Level FlightAware Transoceanic
Wed 01:13:21 AM 34.5169 -67.8372 146° Southeast 464 534 37,000  Level New York Center
Wed 01:14:00 AM 34.3379 -67.7659 144° Southeast 456 525 37,000  Level FlightAware Transoceanic
Wed 01:14:21 AM 34.3964 -67.7686 155° Southeast 451 519 37,000  Level New York Center
Wed 01:15:21 AM 34.2967 -67.7044 152° Southeast 451 519 37,000  Level New York Center
Wed 01:16:21 AM 34.1775 -67.6161 148° Southeast 456 525 37,000  Level New York Center
Wed 01:17:21 AM 34.0614 -67.5603 158° South 450 518 37,000  Level New York Center
Wed 01:18:21 AM 33.9503 -67.5344 169° South 481 554 37,000  Level New York Center
Wed 01:19:21 AM 33.8117 -67.5050 170° South 466 536 37,000  Level New York Center
Wed 01:20:21 AM 33.6922 -67.4772 169° South 453 521 37,000  Level New York Center
Wed 01:21:21 AM 33.5622 -67.4547 172° South 454 522 37,000  Level New York Center
Wed 01:22:21 AM 33.4447 -67.4247 168° South 454 522 37,000  Level New York Center
Wed 01:23:21 AM 33.3314 -67.4019 170° South 460 529 37,000  Level New York Center
Wed 01:24:21 AM 33.1972 -67.3750 170° South 445 512 37,000  Level New York Center
Wed 01:25:21 AM 33.0736 -67.3503 170° South 452 520 37,000  Level New York Center
Wed 01:26:21 AM 32.9625 -67.3275 170° South 447 514 37,000  Level New York Center
Wed 01:27:21 AM 32.8239 -67.2986 170° South 454 522 37,000  Level New York Center
Wed 01:28:21 AM 32.7108 -67.2783 171° South 460 529 37,000  Level New York Center
Wed 01:29:21 AM 32.5786 -67.2469 169° South 455 524 37,000  Level New York Center
Wed 01:30:21 AM 32.4486 -67.2203 170° South 464 534 37,000  Level New York Center
Wed 01:31:21 AM 32.3394 -67.1978 170° South 455 524 37,000  Level New York Center
Wed 01:32:21 AM 32.1972 -67.1719 171° South 461 531 37,000  Level New York Center
Wed 01:33:21 AM 32.0733 -67.1453 170° South 461 531 37,000  Level New York Center
Wed 01:34:21 AM 31.9581 -67.1206 170° South 461 531 37,000  Level New York Center
Wed 01:35:21 AM 31.8175 -67.0925 170° South 469 540 37,000  Level New York Center
Wed 01:36:21 AM 31.7067 -67.0728 171° South 460 529 37,000  Level New York Center
Wed 01:37:21 AM 31.5639 -67.0422 170° South 469 540 37,000  Level New York Center
Wed 01:38:21 AM 31.4361 -67.0186 171° South 469 540 37,000  Level New York Center
Wed 01:39:21 AM 31.3231 -66.9942 170° South 469 540 37,000  Level New York Center
Wed 01:40:21 AM 31.1828 -66.9664 170° South 464 534 37,000  Level New York Center
Wed 01:41:21 AM 31.0589 -66.9403 170° South 469 540 37,000  Level New York Center
Wed 01:42:21 AM 30.9458 -66.9208 172° South 464 534 37,000  Level New York Center
Wed 01:43:21 AM 30.8056 -66.8908 170° South 464 534 37,000  Level New York Center
Wed 01:44:21 AM 30.6881 -66.8647 169° South 469 540 37,000  Level New York Center
Wed 01:45:21 AM 30.5519 -66.8392 171° South 464 534 37,000  Level New York Center
Wed 01:46:21 AM 30.4264 -66.8158 171° South 469 540 37,000  Level New York Center
Wed 01:47:21 AM 30.3178 -66.7992 172° South 459 528 37,000  Level New York Center
Wed 01:48:21 AM 30.1733 -66.7767 172° South 465 535 37,000  Level New York Center
Wed 01:49:21 AM 30.0486 -66.7797 181° South 460 529 37,000  Level New York Center
Wed 01:50:21 AM 29.9189 -66.7544 170° South 461 531 37,000  Level New York Center
Wed 01:52:00 AM 29.7371 -66.6748 170° South  Level FlightAware Approximate
Wed 01:53:58 AM 29.9167 -66.7167 170° South 452 520 37,000  Level New York Oceanic (ODAPS)
Wed 01:59:00 AM 28.9190 -66.5173 170° South  Level FlightAware Approximate
Wed 02:00:00 AM 28.6714 -66.4752 170° South 452 520 37,000  Level FlightAware Transoceanic
Wed 02:01:00 AM 28.5469 -66.4514 170° South 452 520 37,000  Level FlightAware Transoceanic
Wed 02:02:00 AM 28.4223 -66.4276 170° South 452 520 37,000  Level FlightAware Transoceanic
Wed 02:03:00 AM 28.2978 -66.4039 170° South 452 520 37,000  Level FlightAware Transoceanic
Wed 02:04:00 AM 28.1732 -66.3803 171° South 452 520 37,000  Level FlightAware Transoceanic
Wed 02:05:00 AM 28.0487 -66.3567 171° South 452 520 37,000  Level FlightAware Transoceanic
Wed 02:06:00 AM 27.9241 -66.3331 171° South 452 520 37,000  Level FlightAware Transoceanic
Wed 02:07:00 AM 27.7995 -66.3096 171° South 452 520 37,000  Level FlightAware Transoceanic
Wed 02:08:00 AM 27.6749 -66.2862 171° South 452 520 37,000  Level FlightAware Transoceanic
Wed 02:09:00 AM 27.5504 -66.2628 171° South 452 520 37,000  Level FlightAware Transoceanic
Wed 02:10:00 AM 27.4258 -66.2395 171° South 452 520 37,000  Level FlightAware Transoceanic
Wed 02:11:00 AM 27.3012 -66.2162 171° South 452 520 37,000  Level FlightAware Transoceanic
Wed 02:12:00 AM 27.1766 -66.1929 171° South 452 520 37,000  Level FlightAware Transoceanic
Wed 02:13:00 AM 27.0520 -66.1698 171° South 452 520 37,000  Level FlightAware Transoceanic
Wed 02:14:00 AM 26.9274 -66.1467 171° South 452 520 37,000  Level FlightAware Transoceanic
Wed 02:15:00 AM 26.8028 -66.1236 171° South 452 520 37,000  Level FlightAware Transoceanic
Wed 02:16:00 AM 26.6782 -66.1005 171° South 452 520 37,000  Level FlightAware Transoceanic
Wed 02:17:00 AM 26.5536 -66.0776 171° South 452 520 37,000  Level FlightAware Transoceanic
Wed 02:18:00 AM 26.4290 -66.0547 171° South 452 520 37,000  Level FlightAware Transoceanic
Wed 02:19:00 AM 26.3044 -66.0318 171° South 452 520 37,000  Level FlightAware Transoceanic
Wed 02:20:00 AM 26.1797 -66.0090 171° South 452 520 37,000  Level FlightAware Transoceanic
Wed 02:21:00 AM 26.0551 -65.9862 171° South 452 520 37,000  Level FlightAware Transoceanic
Wed 02:22:00 AM 25.9305 -65.9635 171° South 452 520 37,000  Level FlightAware Transoceanic
Wed 02:23:00 AM 25.8058 -65.9408 171° South 452 520 37,000  Level FlightAware Transoceanic
Wed 02:24:00 AM 25.6812 -65.9181 171° South 452 520 37,000  Level FlightAware Transoceanic
Wed 02:25:00 AM 25.5566 -65.8956 171° South 452 520 37,000  Level FlightAware Transoceanic
Wed 02:26:00 AM 25.4319 -65.8730 171° South 452 520 37,000  Level FlightAware Transoceanic
Wed 02:27:00 AM 25.3073 -65.8505 171° South 452 520 37,000  Level FlightAware Transoceanic
Wed 02:28:00 AM 25.1826 -65.8281 171° South 452 520 37,000  Level FlightAware Transoceanic
Wed 02:29:00 AM 25.0580 -65.8057 171° South 452 520 37,000  Level FlightAware Transoceanic
Wed 02:30:00 AM 24.9333 -65.7833 185° South 452 520 37,000  Level FlightAware Transoceanic
Wed 02:31:00 AM 24.8125 -65.7947 185° South 452 520 37,000  Level FlightAware Transoceanic
Wed 02:32:00 AM 24.6917 -65.8060 185° South 452 520 37,000  Level FlightAware Transoceanic
Wed 02:33:00 AM 24.5709 -65.8173 185° South 452 520 37,000  Level FlightAware Transoceanic
Wed 02:34:00 AM 24.4500 -65.8286 185° South 452 520 37,000  Level FlightAware Transoceanic
Wed 02:35:00 AM 24.3292 -65.8399 185° South 452 520 37,000  Level FlightAware Transoceanic
Wed 02:36:00 AM 24.2084 -65.8511 185° South 452 520 37,000  Level FlightAware Transoceanic
Wed 02:37:00 AM 24.0875 -65.8623 185° South 452 520 37,000  Level FlightAware Transoceanic
Wed 02:38:00 AM 23.9667 -65.8735 185° South 452 520 37,000  Level FlightAware Transoceanic
Wed 02:39:00 AM 23.8459 -65.8847 185° South 452 520 37,000  Level FlightAware Transoceanic
Wed 02:40:00 AM 23.7251 -65.8959 185° South 452 520 37,000  Level FlightAware Transoceanic
Wed 02:41:00 AM 23.6042 -65.9070 185° South 452 520 37,000  Level FlightAware Transoceanic
Wed 02:42:00 AM 23.4834 -65.9181 185° South 452 520 37,000  Level FlightAware Transoceanic
Wed 02:42:29 AM 24.9333 -65.7833 185° South 453 521 37,000  Level New York Oceanic (ODAPS)
Wed 02:43:00 AM 23.3626 -65.9292 185° South 452 520 37,000  Level FlightAware Transoceanic
Wed 02:44:00 AM 23.2417 -65.9403 185° South 452 520 37,000  Level FlightAware Transoceanic
Wed 02:45:00 AM 23.1209 -65.9514 185° South 452 520 37,000  Level FlightAware Transoceanic
Wed 02:46:00 AM 23.0000 -65.9624 185° South 452 520 37,000  Level FlightAware Transoceanic
Wed 02:47:00 AM 22.8792 -65.9734 185° South 452 520 37,000  Level FlightAware Transoceanic
Wed 02:48:00 AM 22.6638 -65.9930 185° South 453 521 37,000  Level FlightAware Transoceanic
Wed 02:49:00 AM 22.5377 -66.0044 185° South 453 521 37,000  Level FlightAware Transoceanic
Wed 02:49:37 AM 22.5333 -66.0000 180° South 390 449 37,000  Level San Juan Center
Wed 02:50:00 AM 22.4116 -66.0159 185° South 453 521 37,000  Level FlightAware Transoceanic
Wed 02:50:37 AM 22.4167 -66.0167 188° South 480 552 37,000  Level San Juan Center
Wed 02:51:00 AM 22.2855 -66.0273 185° South 453 521 37,000  Level FlightAware Transoceanic
Wed 02:51:37 AM 22.2833 -66.0333 187° South 440 506 37,000  Level San Juan Center
Wed 02:52:00 AM 22.1594 -66.0386 185° South 453 521 37,000  Level FlightAware Transoceanic
Wed 02:52:38 AM 22.1667 -66.0500 188° South 430 495 37,000  Level San Juan Center
Wed 02:53:00 AM 22.0333 -66.0500 180° South 453 521 37,000  Level FlightAware Transoceanic
Wed 02:53:38 AM 22.0500 -66.0500 180° South 430 495 37,000  Level San Juan Center
Wed 02:54:00 AM 21.9200 -66.0500 180° South 453 521 37,000  Level FlightAware Transoceanic
Wed 02:54:38 AM 21.9333 -66.0500 180° South 440 506 37,000  Level San Juan Center
Wed 02:55:39 AM 21.8167 -66.0500 180° South 380 437 37,000  Level San Juan Center
Wed 02:56:39 AM 21.6833 -66.0667 187° South 410 472 37,000  Level San Juan Center
Wed 02:57:39 AM 21.5667 -66.0500 172° South 480 552 37,000  Level San Juan Center
Wed 02:58:40 AM 21.4333 -66.0667 187° South 430 495 37,000  Level San Juan Center
Wed 02:59:40 AM 21.3167 -66.0833 188° South 430 495 37,000  Level San Juan Center
Wed 03:00:40 AM 21.1833 -66.0833 180° South 440 506 37,000  Level San Juan Center
Wed 03:01:41 AM 21.0667 -66.0833 180° South 450 518 37,000  Level San Juan Center
Wed 03:02:40 AM 20.9333 -66.1000 187° South 430 495 37,000  Level San Juan Center
Wed 03:03:41 AM 20.8167 -66.0833 172° South 430 495 37,000  Level San Juan Center
Wed 03:04:41 AM 20.7000 -66.0833 180° South 430 495 37,000  Level San Juan Center
Wed 03:05:41 AM 20.5667 -66.1000 187° South 440 506 37,000  Level San Juan Center
Wed 03:06:42 AM 20.4333 -66.1000 180° South 440 506 37,000  Level San Juan Center
Wed 03:07:42 AM 20.3167 -66.1000 180° South 440 506 37,000 -500 Level San Juan Center
Wed 03:08:42 AM 20.2000 -66.1167 188° South 440 506 36,000 -1,785 Descending San Juan Center
Wed 03:09:43 AM 20.0833 -66.1167 180° South 440 506 33,400 -2,876 Descending San Juan Center
Wed 03:10:43 AM 19.9500 -66.1167 180° South 450 518 30,200 -2,950 Descending San Juan Center
Wed 03:11:43 AM 19.8167 -66.1500 193° South 440 506 27,500 -2,579 Descending San Juan Center
Wed 03:12:44 AM 19.7000 -66.1833 195° South 450 518 25,000 -2,479 Descending San Juan Center
Wed 03:13:44 AM 19.5667 -66.2167 193° South 440 506 22,500 -3,450 Descending San Juan Center
Wed 03:14:44 AM 19.4667 -66.2167 180° South 430 495 18,100 -3,967 Descending San Juan Center
Wed 03:15:45 AM 19.3333 -66.2167 180° South 430 495 14,500 -2,975 Descending San Juan Center
Wed 03:16:45 AM 19.2333 -66.2167 180° South 390 449 12,100 -2,000 Descending San Juan Center
Wed 03:17:45 AM 19.1333 -66.2167 180° South 370 426 10,500 -1,190 Descending San Juan Center
Wed 03:18:46 AM 19.0333 -66.2000 171° South 310 357 9,700 -992 Descending San Juan Center
Wed 03:19:46 AM 18.9500 -66.2000 180° South 290 334 8,500 -1,250 Descending San Juan Center
Wed 03:20:46 AM 18.8833 -66.2000 180° South 290 334 7,200 -1,500 Descending San Juan Center
Wed 03:21:46 AM 18.8000 -66.2000 180° South 280 322 5,500 -1,750 Descending San Juan Center
Wed 03:22:46 AM 18.7167 -66.2000 180° South 280 322 3,700 -1,736 Descending San Juan Center
Wed 03:23:47 AM 18.6500 -66.2000 180° South 270 311 2,000 -843 Descending San Juan Center
Wed 03:24:47 AM 18.5667 -66.2000 180° South 250 288 2,000  Level San Juan Center
Wed 03:25:47 AM 18.5000 -66.2000 180° South 230 265 2,000 50 Level San Juan Center
Wed 03:26:48 AM 18.4500 -66.1833 162° South 210 242 2,100  Climbing San Juan Center
Wed 03:27:48 AM 18.4333 -66.1333 109° East 170 196 2,000 -250 Descending San Juan Center
Wed 03:28:48 AM 18.4333 -66.0833 90° East 160 184 1,600 -545 Descending San Juan Center
Wed 03:29:49 AM 18.4333 -66.0500 90° East 120 138 900 -645 Descending San Juan Center
Wed 03:30:49 AM 18.4333 -66.0167 90° East 130 150 300 -600 Descending San Juan Center

Login

Don't have an account? Register now (free) for customized features, flight alerts, and more!